sensor_id;sensor_type;location;lat;lon;timestamp;pressure;altitude;pressure_sealevel;temperature;humidity
61109;BME280;46995;55.740;37.402;2023-03-12T00:00:39;97216.63;;;1.91;88.14
61109;BME280;46995;55.740;37.402;2023-03-12T00:03:05;97151.41;;;1.74;87.55
61109;BME280;46995;55.740;37.402;2023-03-12T00:05:31;97179.66;;;1.88;87.54
61109;BME280;46995;55.740;37.402;2023-03-12T00:07:57;97159.66;;;1.88;87.73
61109;BME280;46995;55.740;37.402;2023-03-12T00:10:25;97174.44;;;1.97;88.18
61109;BME280;46995;55.740;37.402;2023-03-12T00:12:51;97173.47;;;2.08;88.02
61109;BME280;46995;55.740;37.402;2023-03-12T00:15:17;97160.72;;;2.05;87.88
61109;BME280;46995;55.740;37.402;2023-03-12T00:17:43;97162.78;;;2.11;88.20
61109;BME280;46995;55.740;37.402;2023-03-12T00:20:10;97150.88;;;2.18;88.27
61109;BME280;46995;55.740;37.402;2023-03-12T00:22:37;97142.38;;;2.16;88.22
61109;BME280;46995;55.740;37.402;2023-03-12T00:25:04;97148.13;;;2.29;87.99
61109;BME280;46995;55.740;37.402;2023-03-12T00:27:30;97127.28;;;2.29;87.49
61109;BME280;46995;55.740;37.402;2023-03-12T00:29:56;97132.63;;;2.28;87.95
61109;BME280;46995;55.740;37.402;2023-03-12T00:32:22;97124.28;;;2.24;88.26
61109;BME280;46995;55.740;37.402;2023-03-12T00:34:52;97124.78;;;2.37;88.81
61109;BME280;46995;55.740;37.402;2023-03-12T00:37:18;97114.38;;;2.37;88.69
61109;BME280;46995;55.740;37.402;2023-03-12T00:39:44;97098.47;;;2.40;88.59
61109;BME280;46995;55.740;37.402;2023-03-12T00:42:10;97094.22;;;2.39;88.63
61109;BME280;46995;55.740;37.402;2023-03-12T00:44:36;97081.47;;;2.46;88.80
61109;BME280;46995;55.740;37.402;2023-03-12T00:47:02;97077.06;;;2.46;88.74
61109;BME280;46995;55.740;37.402;2023-03-12T00:49:27;97072.00;;;2.45;89.00
61109;BME280;46995;55.740;37.402;2023-03-12T00:51:53;97075.53;;;2.53;88.59
61109;BME280;46995;55.740;37.402;2023-03-12T00:54:19;97055.94;;;2.49;89.14
61109;BME280;46995;55.740;37.402;2023-03-12T00:56:45;97048.22;;;2.58;89.07
61109;BME280;46995;55.740;37.402;2023-03-12T00:59:13;97064.38;;;2.71;88.94
61109;BME280;46995;55.740;37.402;2023-03-12T01:01:39;97046.94;;;2.71;88.77
61109;BME280;46995;55.740;37.402;2023-03-12T01:04:04;97035.59;;;2.63;88.95
61109;BME280;46995;55.740;37.402;2023-03-12T01:06:30;97032.84;;;2.64;89.01
61109;BME280;46995;55.740;37.402;2023-03-12T01:08:56;97031.97;;;2.73;88.62
61109;BME280;46995;55.740;37.402;2023-03-12T01:11:22;97031.31;;;2.71;88.77
61109;BME280;46995;55.740;37.402;2023-03-12T01:13:48;97031.91;;;2.83;89.12
61109;BME280;46995;55.740;37.402;2023-03-12T01:16:14;97034.25;;;2.86;88.58
61109;BME280;46995;55.740;37.402;2023-03-12T01:18:40;97021.50;;;2.83;88.95
61109;BME280;46995;55.740;37.402;2023-03-12T01:21:06;97009.91;;;2.77;88.83
61109;BME280;46995;55.740;37.402;2023-03-12T01:23:32;97032.16;;;2.89;88.51
61109;BME280;46995;55.740;37.402;2023-03-12T01:25:58;97007.50;;;2.84;89.14
61109;BME280;46995;55.740;37.402;2023-03-12T01:28:25;97027.78;;;2.90;89.15
61109;BME280;46995;55.740;37.402;2023-03-12T01:30:51;97002.03;;;2.87;89.14
61109;BME280;46995;55.740;37.402;2023-03-12T01:33:17;96994.66;;;2.82;89.20
61109;BME280;46995;55.740;37.402;2023-03-12T01:35:43;96999.25;;;2.88;89.15
61109;BME280;46995;55.740;37.402;2023-03-12T01:38:12;96972.97;;;2.82;89.45
61109;BME280;46995;55.740;37.402;2023-03-12T01:40:39;96984.66;;;2.95;89.54
61109;BME280;46995;55.740;37.402;2023-03-12T01:48:50;96982.69;;;3.07;89.76
61109;BME280;46995;55.740;37.402;2023-03-12T01:51:20;96976.34;;;3.10;89.93
61109;BME280;46995;55.740;37.402;2023-03-12T01:53:49;96979.47;;;3.13;90.13
61109;BME280;46995;55.740;37.402;2023-03-12T01:56:18;96968.06;;;3.14;90.12
61109;BME280;46995;55.740;37.402;2023-03-12T01:58:50;96966.44;;;3.13;90.19
61109;BME280;46995;55.740;37.402;2023-03-12T02:01:18;96951.75;;;3.12;90.05
61109;BME280;46995;55.740;37.402;2023-03-12T02:03:47;96958.69;;;3.21;90.00
61109;BME280;46995;55.740;37.402;2023-03-12T02:06:17;96947.97;;;3.24;90.12
61109;BME280;46995;55.740;37.402;2023-03-12T02:08:46;96912.94;;;3.09;90.47
61109;BME280;46995;55.740;37.402;2023-03-12T02:11:13;96919.50;;;3.13;90.25
61109;BME280;46995;55.740;37.402;2023-03-12T02:13:39;96923.44;;;3.17;90.44
61109;BME280;46995;55.740;37.402;2023-03-12T02:16:05;96940.50;;;3.29;90.41
61109;BME280;46995;55.740;37.402;2023-03-12T02:18:33;96936.63;;;3.33;90.38
61109;BME280;46995;55.740;37.402;2023-03-12T02:23:40;96927.53;;;3.37;90.38
61109;BME280;46995;55.740;37.402;2023-03-12T02:26:08;96910.53;;;3.33;90.23
61109;BME280;46995;55.740;37.402;2023-03-12T02:28:37;96918.72;;;3.38;90.31
61109;BME280;46995;55.740;37.402;2023-03-12T02:31:12;96907.25;;;3.31;90.56
61109;BME280;46995;55.740;37.402;2023-03-12T02:33:39;96914.84;;;3.42;90.96
61109;BME280;46995;55.740;37.402;2023-03-12T02:36:06;96878.72;;;3.30;90.63
61109;BME280;46995;55.740;37.402;2023-03-12T02:38:35;96899.09;;;3.52;90.70
61109;BME280;46995;55.740;37.402;2023-03-12T02:46:20;96868.59;;;3.53;90.88
61109;BME280;46995;55.740;37.402;2023-03-12T02:48:46;96872.91;;;3.62;90.76
61109;BME280;46995;55.740;37.402;2023-03-12T02:51:12;96854.59;;;3.54;90.87
61109;BME280;46995;55.740;37.402;2023-03-12T02:53:38;96871.28;;;3.61;90.84
61109;BME280;46995;55.740;37.402;2023-03-12T02:56:05;96871.63;;;3.66;90.93
61109;BME280;46995;55.740;37.402;2023-03-12T02:58:31;96843.00;;;3.56;91.19
61109;BME280;46995;55.740;37.402;2023-03-12T03:00:57;96847.16;;;3.67;91.45
61109;BME280;46995;55.740;37.402;2023-03-12T03:03:23;96832.78;;;3.63;91.35
61109;BME280;46995;55.740;37.402;2023-03-12T03:05:49;96848.50;;;3.71;91.31
61109;BME280;46995;55.740;37.402;2023-03-12T03:08:16;96841.03;;;3.76;91.06
61109;BME280;46995;55.740;37.402;2023-03-12T03:10:42;96831.84;;;3.72;91.44
61109;BME280;46995;55.740;37.402;2023-03-12T03:13:08;96831.56;;;3.75;91.25
61109;BME280;46995;55.740;37.402;2023-03-12T03:15:34;96826.19;;;3.76;91.09
61109;BME280;46995;55.740;37.402;2023-03-12T03:18:01;96824.06;;;3.80;91.07
61109;BME280;46995;55.740;37.402;2023-03-12T03:20:29;96825.38;;;3.84;91.41
61109;BME280;46995;55.740;37.402;2023-03-12T03:22:55;96819.34;;;3.83;91.38
61109;BME280;46995;55.740;37.402;2023-03-12T03:25:20;96813.34;;;3.91;91.41
61109;BME280;46995;55.740;37.402;2023-03-12T03:27:48;96804.69;;;3.91;91.24
61109;BME280;46995;55.740;37.402;2023-03-12T03:30:14;96806.84;;;3.95;91.00
61109;BME280;46995;55.740;37.402;2023-03-12T03:32:44;96801.41;;;3.89;90.98
61109;BME280;46995;55.740;37.402;2023-03-12T03:35:11;96787.88;;;3.85;91.08
61109;BME280;46995;55.740;37.402;2023-03-12T03:37:38;96792.97;;;3.95;91.15
61109;BME280;46995;55.740;37.402;2023-03-12T03:40:05;96784.84;;;3.98;91.41
61109;BME280;46995;55.740;37.402;2023-03-12T03:42:32;96781.75;;;4.02;91.25
61109;BME280;46995;55.740;37.402;2023-03-12T03:44:58;96761.81;;;4.01;91.49
61109;BME280;46995;55.740;37.402;2023-03-12T03:47:24;96742.88;;;3.91;91.36
61109;BME280;46995;55.740;37.402;2023-03-12T03:49:50;96765.06;;;4.03;91.34
61109;BME280;46995;55.740;37.402;2023-03-12T03:52:15;96748.09;;;3.99;91.10
61109;BME280;46995;55.740;37.402;2023-03-12T03:54:41;96748.78;;;4.09;91.17
61109;BME280;46995;55.740;37.402;2023-03-12T03:57:07;96737.34;;;4.02;91.18
61109;BME280;46995;55.740;37.402;2023-03-12T03:59:33;96744.22;;;4.11;91.63
61109;BME280;46995;55.740;37.402;2023-03-12T04:01:59;96745.84;;;4.12;91.32
61109;BME280;46995;55.740;37.402;2023-03-12T04:04:27;96712.69;;;4.05;91.39
61109;BME280;46995;55.740;37.402;2023-03-12T04:06:53;96728.84;;;4.08;91.50
61109;BME280;46995;55.740;37.402;2023-03-12T04:09:19;96712.53;;;3.98;91.31
61109;BME280;46995;55.740;37.402;2023-03-12T04:11:45;96723.63;;;4.08;91.61
61109;BME280;46995;55.740;37.402;2023-03-12T04:14:12;96713.19;;;4.08;91.27
61109;BME280;46995;55.740;37.402;2023-03-12T04:16:42;96691.31;;;4.01;91.48
61109;BME280;46995;55.740;37.402;2023-03-12T04:19:08;96699.50;;;4.06;91.67
61109;BME280;46995;55.740;37.402;2023-03-12T04:21:34;96715.50;;;4.19;91.52
61109;BME280;46995;55.740;37.402;2023-03-12T04:24:00;96688.41;;;4.12;91.32
61109;BME280;46995;55.740;37.402;2023-03-12T04:26:30;96707.34;;;4.22;91.10
61109;BME280;46995;55.740;37.402;2023-03-12T04:28:56;96695.75;;;4.17;91.25
61109;BME280;46995;55.740;37.402;2023-03-12T04:31:22;96691.00;;;4.20;91.60
61109;BME280;46995;55.740;37.402;2023-03-12T04:33:51;96678.94;;;4.19;91.47
61109;BME280;46995;55.740;37.402;2023-03-12T04:36:24;96701.00;;;4.33;91.19
61109;BME280;46995;55.740;37.402;2023-03-12T04:39:00;96679.25;;;4.24;91.30
61109;BME280;46995;55.740;37.402;2023-03-12T04:41:30;96685.81;;;4.37;91.06
61109;BME280;46995;55.740;37.402;2023-03-12T04:44:02;96694.31;;;4.39;91.34
61109;BME280;46995;55.740;37.402;2023-03-12T04:46:28;96682.22;;;4.38;91.21
61109;BME280;46995;55.740;37.402;2023-03-12T04:48:55;96681.56;;;4.44;91.38
61109;BME280;46995;55.740;37.402;2023-03-12T04:51:21;96649.72;;;4.32;91.37
61109;BME280;46995;55.740;37.402;2023-03-12T04:53:47;96655.28;;;4.37;91.22
61109;BME280;46995;55.740;37.402;2023-03-12T04:56:14;96672.06;;;4.51;91.62
61109;BME280;46995;55.740;37.402;2023-03-12T04:58:41;96654.47;;;4.45;91.33
61109;BME280;46995;55.740;37.402;2023-03-12T05:01:15;96673.06;;;4.50;91.88
61109;BME280;46995;55.740;37.402;2023-03-12T05:03:44;96653.66;;;4.44;91.21
61109;BME280;46995;55.740;37.402;2023-03-12T05:06:10;96660.00;;;4.50;91.29
61109;BME280;46995;55.740;37.402;2023-03-12T05:08:36;96649.88;;;4.47;91.35
61109;BME280;46995;55.740;37.402;2023-03-12T05:11:03;96644.66;;;4.47;91.04
61109;BME280;46995;55.740;37.402;2023-03-12T05:13:29;96626.66;;;4.52;90.99
61109;BME280;46995;55.740;37.402;2023-03-12T05:15:56;96623.91;;;4.53;91.46
61109;BME280;46995;55.740;37.402;2023-03-12T05:18:22;96634.50;;;4.68;91.33
61109;BME280;46995;55.740;37.402;2023-03-12T05:21:00;96627.47;;;4.68;91.45
61109;BME280;46995;55.740;37.402;2023-03-12T05:23:26;96633.16;;;4.72;91.32
61109;BME280;46995;55.740;37.402;2023-03-12T05:25:52;96623.88;;;4.61;91.39
61109;BME280;46995;55.740;37.402;2023-03-12T05:28:20;96637.41;;;4.81;91.38
61109;BME280;46995;55.740;37.402;2023-03-12T05:30:46;96613.72;;;4.75;91.44
61109;BME280;46995;55.740;37.402;2023-03-12T05:33:12;96592.97;;;4.73;91.02
61109;BME280;46995;55.740;37.402;2023-03-12T05:35:38;96614.50;;;4.91;91.19
61109;BME280;46995;55.740;37.402;2023-03-12T05:38:05;96615.50;;;4.90;90.82
61109;BME280;46995;55.740;37.402;2023-03-12T05:40:30;96605.50;;;4.94;90.58
61109;BME280;46995;55.740;37.402;2023-03-12T05:42:57;96608.09;;;5.02;90.29
61109;BME280;46995;55.740;37.402;2023-03-12T05:45:25;96597.50;;;4.95;90.52
61109;BME280;46995;55.740;37.402;2023-03-12T05:47:53;96611.69;;;5.01;90.72
61109;BME280;46995;55.740;37.402;2023-03-12T05:50:19;96591.59;;;5.01;90.90
61109;BME280;46995;55.740;37.402;2023-03-12T05:52:45;96580.63;;;4.98;90.43
61109;BME280;46995;55.740;37.402;2023-03-12T05:55:11;96590.09;;;5.07;90.67
61109;BME280;46995;55.740;37.402;2023-03-12T05:57:38;96587.28;;;5.08;90.50
61109;BME280;46995;55.740;37.402;2023-03-12T06:00:08;96586.47;;;5.08;90.83
61109;BME280;46995;55.740;37.402;2023-03-12T06:02:43;96582.72;;;5.10;90.45
61109;BME280;46995;55.740;37.402;2023-03-12T06:05:10;96586.00;;;5.13;90.75
61109;BME280;46995;55.740;37.402;2023-03-12T06:07:37;96591.38;;;5.11;90.83
61109;BME280;46995;55.740;37.402;2023-03-12T06:10:03;96577.84;;;5.07;90.55
61109;BME280;46995;55.740;37.402;2023-03-12T06:12:29;96576.00;;;5.08;90.71
61109;BME280;46995;55.740;37.402;2023-03-12T06:14:56;96571.00;;;4.98;90.97
61109;BME280;46995;55.740;37.402;2023-03-12T06:17:23;96547.81;;;4.95;90.96
61109;BME280;46995;55.740;37.402;2023-03-12T06:19:50;96576.50;;;5.11;91.05
61109;BME280;46995;55.740;37.402;2023-03-12T06:22:18;96555.97;;;5.00;91.17
61109;BME280;46995;55.740;37.402;2023-03-12T06:24:44;96575.34;;;5.14;91.34
61109;BME280;46995;55.740;37.402;2023-03-12T06:27:16;96556.72;;;5.09;91.38
61109;BME280;46995;55.740;37.402;2023-03-12T06:29:42;96547.13;;;5.01;90.79
61109;BME280;46995;55.740;37.402;2023-03-12T06:32:08;96559.13;;;5.19;91.09
61109;BME280;46995;55.740;37.402;2023-03-12T06:34:34;96561.44;;;5.13;91.16
61109;BME280;46995;55.740;37.402;2023-03-12T06:37:00;96566.97;;;5.19;91.14
61109;BME280;46995;55.740;37.402;2023-03-12T06:39:25;96565.81;;;5.21;91.61
61109;BME280;46995;55.740;37.402;2023-03-12T06:41:51;96564.66;;;5.24;91.22
61109;BME280;46995;55.740;37.402;2023-03-12T06:44:18;96532.56;;;5.07;91.41
61109;BME280;46995;55.740;37.402;2023-03-12T06:46:44;96552.59;;;5.23;91.03
61109;BME280;46995;55.740;37.402;2023-03-12T06:49:10;96563.00;;;5.31;91.58
61109;BME280;46995;55.740;37.402;2023-03-12T06:51:36;96552.38;;;5.32;91.03
61109;BME280;46995;55.740;37.402;2023-03-12T06:54:02;96531.81;;;5.21;91.06
61109;BME280;46995;55.740;37.402;2023-03-12T06:56:29;96539.56;;;5.37;91.03
61109;BME280;46995;55.740;37.402;2023-03-12T06:58:55;96530.75;;;5.38;91.28
61109;BME280;46995;55.740;37.402;2023-03-12T07:01:21;96529.56;;;5.41;91.01
61109;BME280;46995;55.740;37.402;2023-03-12T07:03:47;96529.56;;;5.41;90.95
61109;BME280;46995;55.740;37.402;2023-03-12T07:06:15;96523.41;;;5.34;91.08
61109;BME280;46995;55.740;37.402;2023-03-12T07:08:42;96541.66;;;5.42;91.29
61109;BME280;46995;55.740;37.402;2023-03-12T07:11:11;96524.69;;;5.38;91.09
61109;BME280;46995;55.740;37.402;2023-03-12T07:13:38;96510.13;;;5.35;91.15
61109;BME280;46995;55.740;37.402;2023-03-12T07:16:04;96501.66;;;5.33;91.20
61109;BME280;46995;55.740;37.402;2023-03-12T07:18:31;96505.31;;;5.47;91.08
61109;BME280;46995;55.740;37.402;2023-03-12T07:20:57;96493.38;;;5.44;91.01
61109;BME280;46995;55.740;37.402;2023-03-12T07:23:24;96494.22;;;5.45;91.17
61109;BME280;46995;55.740;37.402;2023-03-12T07:25:50;96485.38;;;5.46;91.04
61109;BME280;46995;55.740;37.402;2023-03-12T07:28:17;96485.03;;;5.49;90.97
61109;BME280;46995;55.740;37.402;2023-03-12T07:30:44;96468.03;;;5.45;90.92
61109;BME280;46995;55.740;37.402;2023-03-12T07:33:17;96495.03;;;5.68;91.05
61109;BME280;46995;55.740;37.402;2023-03-12T07:35:45;96488.53;;;5.64;90.87
61109;BME280;46995;55.740;37.402;2023-03-12T07:38:12;96491.22;;;5.71;91.13
61109;BME280;46995;55.740;37.402;2023-03-12T07:40:37;96495.97;;;5.75;91.02
61109;BME280;46995;55.740;37.402;2023-03-12T07:43:04;96482.22;;;5.73;91.08
61109;BME280;46995;55.740;37.402;2023-03-12T07:45:39;96484.75;;;5.81;90.73
61109;BME280;46995;55.740;37.402;2023-03-12T07:48:07;96463.88;;;5.73;90.55
61109;BME280;46995;55.740;37.402;2023-03-12T07:50:34;96481.16;;;5.82;90.58
61109;BME280;46995;55.740;37.402;2023-03-12T07:52:59;96456.69;;;5.75;90.65
61109;BME280;46995;55.740;37.402;2023-03-12T07:55:26;96479.78;;;5.86;90.66
61109;BME280;46995;55.740;37.402;2023-03-12T07:57:52;96463.81;;;5.81;90.65
61109;BME280;46995;55.740;37.402;2023-03-12T08:00:21;96453.34;;;5.81;90.93
61109;BME280;46995;55.740;37.402;2023-03-12T08:02:47;96457.63;;;5.97;90.52
61109;BME280;46995;55.740;37.402;2023-03-12T08:05:12;96443.09;;;5.94;90.49
61109;BME280;46995;55.740;37.402;2023-03-12T08:07:38;96452.50;;;6.04;90.35
61109;BME280;46995;55.740;37.402;2023-03-12T08:10:05;96453.97;;;6.06;90.25
61109;BME280;46995;55.740;37.402;2023-03-12T08:12:32;96448.91;;;6.05;90.40
61109;BME280;46995;55.740;37.402;2023-03-12T08:14:58;96443.94;;;6.10;89.99
61109;BME280;46995;55.740;37.402;2023-03-12T08:17:23;96441.56;;;6.15;90.24
61109;BME280;46995;55.740;37.402;2023-03-12T08:19:50;96437.69;;;6.11;89.97
61109;BME280;46995;55.740;37.402;2023-03-12T08:22:16;96445.84;;;6.16;89.60
61109;BME280;46995;55.740;37.402;2023-03-12T08:24:42;96436.34;;;6.15;89.87
61109;BME280;46995;55.740;37.402;2023-03-12T08:27:09;96437.06;;;6.23;89.94
61109;BME280;46995;55.740;37.402;2023-03-12T08:29:37;96433.34;;;6.18;89.49
61109;BME280;46995;55.740;37.402;2023-03-12T08:32:03;96419.97;;;6.13;89.51
61109;BME280;46995;55.740;37.402;2023-03-12T08:34:28;96405.34;;;6.04;89.43
61109;BME280;46995;55.740;37.402;2023-03-12T08:36:54;96398.41;;;6.11;89.68
61109;BME280;46995;55.740;37.402;2023-03-12T08:39:21;96399.28;;;6.18;89.43
61109;BME280;46995;55.740;37.402;2023-03-12T08:41:47;96399.28;;;6.18;89.48
61109;BME280;46995;55.740;37.402;2023-03-12T08:44:13;96397.41;;;6.26;89.40
61109;BME280;46995;55.740;37.402;2023-03-12T08:46:40;96365.44;;;6.16;89.31
61109;BME280;46995;55.740;37.402;2023-03-12T08:49:06;96371.38;;;6.25;89.14
61109;BME280;46995;55.740;37.402;2023-03-12T08:51:32;96363.16;;;6.28;89.37
61109;BME280;46995;55.740;37.402;2023-03-12T08:53:57;96359.78;;;6.34;89.11
61109;BME280;46995;55.740;37.402;2023-03-12T08:56:23;96378.88;;;6.43;89.06
61109;BME280;46995;55.740;37.402;2023-03-12T08:58:49;96371.19;;;6.41;88.69
61109;BME280;46995;55.740;37.402;2023-03-12T09:01:15;96365.94;;;6.41;88.92
61109;BME280;46995;55.740;37.402;2023-03-12T09:03:41;96365.56;;;6.44;88.92
61109;BME280;46995;55.740;37.402;2023-03-12T09:06:10;96348.97;;;6.37;88.95
61109;BME280;46995;55.740;37.402;2023-03-12T09:08:40;96334.03;;;6.37;88.58
61109;BME280;46995;55.740;37.402;2023-03-12T09:11:08;96351.09;;;6.48;88.51
61109;BME280;46995;55.740;37.402;2023-03-12T09:13:37;96335.72;;;6.45;88.34
61109;BME280;46995;55.740;37.402;2023-03-12T09:16:03;96347.84;;;6.46;88.35
61109;BME280;46995;55.740;37.402;2023-03-12T09:18:30;96333.38;;;6.50;88.71
61109;BME280;46995;55.740;37.402;2023-03-12T09:20:56;96326.13;;;6.52;88.35
61109;BME280;46995;55.740;37.402;2023-03-12T09:23:24;96331.47;;;6.59;88.19
61109;BME280;46995;55.740;37.402;2023-03-12T09:25:50;96334.03;;;6.73;88.07
61109;BME280;46995;55.740;37.402;2023-03-12T09:28:16;96321.72;;;6.53;87.58
61109;BME280;46995;55.740;37.402;2023-03-12T09:30:42;96336.06;;;6.57;87.95
61109;BME280;46995;55.740;37.402;2023-03-12T09:33:08;96301.41;;;6.40;87.93
61109;BME280;46995;55.740;37.402;2023-03-12T09:35:35;96329.38;;;6.54;88.19
61109;BME280;46995;55.740;37.402;2023-03-12T09:38:02;96313.91;;;6.38;88.39
61109;BME280;46995;55.740;37.402;2023-03-12T09:40:31;96317.28;;;6.53;88.46
61109;BME280;46995;55.740;37.402;2023-03-12T09:43:20;96311.47;;;6.58;88.67
61109;BME280;46995;55.740;37.402;2023-03-12T09:45:49;96292.25;;;6.51;88.36
61109;BME280;46995;55.740;37.402;2023-03-12T09:48:19;96280.75;;;6.52;88.44
61109;BME280;46995;55.740;37.402;2023-03-12T09:50:50;96301.69;;;6.66;88.34
61109;BME280;46995;55.740;37.402;2023-03-12T09:53:39;96292.81;;;6.67;88.14
61109;BME280;46995;55.740;37.402;2023-03-12T09:56:15;96287.44;;;6.54;88.25
61109;BME280;46995;55.740;37.402;2023-03-12T09:58:43;96282.56;;;6.51;88.06
61109;BME280;46995;55.740;37.402;2023-03-12T10:09:32;96255.97;;;6.75;87.83
61109;BME280;46995;55.740;37.402;2023-03-12T10:21:23;96227.09;;;6.69;87.70
61109;BME280;46995;55.740;37.402;2023-03-12T10:24:19;96236.44;;;6.78;87.32
61109;BME280;46995;55.740;37.402;2023-03-12T10:26:52;96214.53;;;6.64;87.02
61109;BME280;46995;55.740;37.402;2023-03-12T10:29:31;96221.38;;;6.65;87.20
61109;BME280;46995;55.740;37.402;2023-03-12T10:32:03;96221.88;;;6.75;87.45
61109;BME280;46995;55.740;37.402;2023-03-12T10:34:43;96215.63;;;6.76;87.37
61109;BME280;46995;55.740;37.402;2023-03-12T10:39:41;96206.84;;;6.84;87.08
61109;BME280;46995;55.740;37.402;2023-03-12T10:42:18;96192.28;;;6.81;87.08
61109;BME280;46995;55.740;37.402;2023-03-12T10:44:57;96196.81;;;6.94;86.63
61109;BME280;46995;55.740;37.402;2023-03-12T10:47:37;96198.63;;;6.94;86.57
61109;BME280;46995;55.740;37.402;2023-03-12T10:50:20;96185.28;;;6.89;86.66
61109;BME280;46995;55.740;37.402;2023-03-12T10:52:48;96193.31;;;6.87;86.48
61109;BME280;46995;55.740;37.402;2023-03-12T10:55:27;96184.28;;;6.90;86.37
61109;BME280;46995;55.740;37.402;2023-03-12T10:57:57;96171.06;;;6.76;86.65
61109;BME280;46995;55.740;37.402;2023-03-12T11:00:26;96174.31;;;6.78;86.91
61109;BME280;46995;55.740;37.402;2023-03-12T11:03:04;96161.72;;;6.67;86.89
61109;BME280;46995;55.740;37.402;2023-03-12T11:05:35;96177.13;;;6.77;86.69
61109;BME280;46995;55.740;37.402;2023-03-12T11:08:03;96162.13;;;6.64;86.99
61109;BME280;46995;55.740;37.402;2023-03-12T11:13:08;96178.84;;;6.63;87.05
61109;BME280;46995;55.740;37.402;2023-03-12T11:15:48;96196.22;;;6.43;85.54
61109;BME280;46995;55.740;37.402;2023-03-12T11:20:52;96230.00;;;5.51;86.86
61109;BME280;46995;55.740;37.402;2023-03-12T11:23:28;96227.47;;;4.99;87.66
61109;BME280;46995;55.740;37.402;2023-03-12T11:26:00;96238.69;;;4.48;89.12
61109;BME280;46995;55.740;37.402;2023-03-12T11:28:42;96246.44;;;4.10;89.82
61109;BME280;46995;55.740;37.402;2023-03-12T11:31:18;96260.63;;;3.85;90.75
61109;BME280;46995;55.740;37.402;2023-03-12T11:33:46;96288.72;;;3.75;90.53
61109;BME280;46995;55.740;37.402;2023-03-12T11:36:37;96290.94;;;3.47;91.18
61109;BME280;46995;55.740;37.402;2023-03-12T11:44:44;96305.38;;;2.70;91.33
61109;BME280;46995;55.740;37.402;2023-03-12T11:47:36;96309.09;;;2.43;91.01
61109;BME280;46995;55.740;37.402;2023-03-12T11:50:35;96320.78;;;2.23;91.66
61109;BME280;46995;55.740;37.402;2023-03-12T12:01:57;96312.38;;;1.53;91.99
61109;BME280;46995;55.740;37.402;2023-03-12T12:13:22;96346.25;;;1.10;92.51
61109;BME280;46995;55.740;37.402;2023-03-12T12:27:28;96411.88;;;1.12;93.70
61109;BME280;46995;55.740;37.402;2023-03-12T12:45:43;96468.66;;;0.17;93.92
61109;BME280;46995;55.740;37.402;2023-03-12T12:48:24;96482.09;;;0.03;94.53
61109;BME280;46995;55.740;37.402;2023-03-12T12:50:52;96467.41;;;-0.16;94.49
61109;BME280;46995;55.740;37.402;2023-03-12T12:53:23;96494.13;;;-0.06;94.80
61109;BME280;46995;55.740;37.402;2023-03-12T12:56:10;96470.00;;;-0.26;94.94
61109;BME280;46995;55.740;37.402;2023-03-12T13:01:07;96490.53;;;-0.32;95.08
61109;BME280;46995;55.740;37.402;2023-03-12T13:03:40;96493.78;;;-0.40;95.20
61109;BME280;46995;55.740;37.402;2023-03-12T13:06:07;96510.16;;;-0.30;95.65
61109;BME280;46995;55.740;37.402;2023-03-12T13:13:42;96532.53;;;-0.29;95.82
61109;BME280;46995;55.740;37.402;2023-03-12T13:21:38;96564.19;;;-0.35;96.23
61109;BME280;46995;55.740;37.402;2023-03-12T13:24:28;96581.38;;;-0.34;96.44
61109;BME280;46995;55.740;37.402;2023-03-12T13:27:35;96591.63;;;-0.42;96.54
61109;BME280;46995;55.740;37.402;2023-03-12T13:35:32;96610.16;;;-0.56;96.56
61109;BME280;46995;55.740;37.402;2023-03-12T13:38:06;96609.91;;;-0.53;96.58
61109;BME280;46995;55.740;37.402;2023-03-12T13:40:51;96631.06;;;-0.48;96.75
61109;BME280;46995;55.740;37.402;2023-03-12T13:43:40;96623.13;;;-0.56;97.12
61109;BME280;46995;55.740;37.402;2023-03-12T13:46:07;96632.94;;;-0.50;97.06
61109;BME280;46995;55.740;37.402;2023-03-12T13:48:46;96619.97;;;-0.69;97.04
61109;BME280;46995;55.740;37.402;2023-03-12T13:51:19;96648.78;;;-0.53;97.23
61109;BME280;46995;55.740;37.402;2023-03-12T13:53:52;96652.44;;;-0.56;96.83
61109;BME280;46995;55.740;37.402;2023-03-12T13:56:25;96661.56;;;-0.61;97.12
61109;BME280;46995;55.740;37.402;2023-03-12T13:59:14;96639.34;;;-0.73;97.01
61109;BME280;46995;55.740;37.402;2023-03-12T14:01:46;96646.53;;;-0.77;96.86
61109;BME280;46995;55.740;37.402;2023-03-12T14:04:20;96652.53;;;-0.86;96.96
61109;BME280;46995;55.740;37.402;2023-03-12T14:12:16;96675.28;;;-0.90;96.94
61109;BME280;46995;55.740;37.402;2023-03-12T14:17:26;96679.97;;;-1.04;97.16
61109;BME280;46995;55.740;37.402;2023-03-12T14:22:35;96709.03;;;-1.01;97.04
61109;BME280;46995;55.740;37.402;2023-03-12T14:25:16;96706.31;;;-0.99;97.26
61109;BME280;46995;55.740;37.402;2023-03-12T14:27:47;96715.19;;;-0.92;97.27
61109;BME280;46995;55.740;37.402;2023-03-12T14:32:42;96718.69;;;-1.03;97.21
61109;BME280;46995;55.740;37.402;2023-03-12T14:35:24;96701.59;;;-1.15;97.08
61109;BME280;46995;55.740;37.402;2023-03-12T14:38:04;96732.34;;;-1.01;97.24
61109;BME280;46995;55.740;37.402;2023-03-12T14:40:45;96757.00;;;-1.06;97.07
61109;BME280;46995;55.740;37.402;2023-03-12T14:43:33;96748.03;;;-1.23;97.15
61109;BME280;46995;55.740;37.402;2023-03-12T14:46:02;96757.00;;;-1.27;97.17
61109;BME280;46995;55.740;37.402;2023-03-12T14:48:31;96784.72;;;-1.39;97.01
61109;BME280;46995;55.740;37.402;2023-03-12T14:50:59;96783.88;;;-1.60;97.08
61109;BME280;46995;55.740;37.402;2023-03-12T14:53:31;96801.44;;;-1.63;96.80
61109;BME280;46995;55.740;37.402;2023-03-12T14:56:12;96816.69;;;-1.60;97.11
61109;BME280;46995;55.740;37.402;2023-03-12T14:58:46;96828.63;;;-1.69;97.20
61109;BME280;46995;55.740;37.402;2023-03-12T15:01:16;96830.97;;;-1.77;97.09
61109;BME280;46995;55.740;37.402;2023-03-12T15:03:47;96837.97;;;-1.89;97.47
61109;BME280;46995;55.740;37.402;2023-03-12T15:06:38;96867.78;;;-1.74;97.48
61109;BME280;46995;55.740;37.402;2023-03-12T15:09:12;96860.41;;;-1.78;97.45
61109;BME280;46995;55.740;37.402;2023-03-12T15:11:40;96887.66;;;-1.74;97.58